Time;durP1;ratioP1;P1;durP2;ratioP2;P2;SDS_P1;SDS_P2;PMS_P1;PMS_P2;Temp;Humidity;BMP_temperature;BMP_pressure;BME280_temperature;BME280_humidity;BME280_pressure;Samples;Min_cycle;Max_cycle;Signal;HPM_P1;HPM_P2
2021/11/15 00:00:47;;;;;;;21.70;12.45;;;;;;;;;;5025248;28;20134;-81
2021/11/15 00:03:16;;;;;;;20.10;11.95;;;;;;;;;;5005191;28;20378;-81
2021/11/15 00:05:42;;;;;;;19.52;11.73;;;;;;;;;;5023063;28;20048;-81
2021/11/15 00:08:07;;;;;;;20.92;11.05;;;;;;;;;;5026879;28;20046;-79
2021/11/15 00:10:32;;;;;;;19.42;12.20;;;;;;;;;;5008026;28;20033;-83
2021/11/15 00:12:58;;;;;;;19.08;11.65;;;;;;;;;;5011086;28;20420;-81
2021/11/15 00:15:24;;;;;;;19.75;11.95;;;;;;;;;;5010990;28;20076;-81
2021/11/15 00:17:50;;;;;;;21.13;12.30;;;;;;;;;;5025005;28;20025;-79
2021/11/15 00:20:17;;;;;;;17.38;11.57;;;;;;;;;;5011330;28;20492;-83
2021/11/15 00:22:43;;;;;;;19.92;11.95;;;;;;;;;;5027610;28;20037;-83
2021/11/15 00:25:10;;;;;;;20.55;11.50;;;;;;;;;;5009522;28;20493;-81
2021/11/15 00:27:35;;;;;;;21.00;11.80;;;;;;;;;;5027273;28;20512;-79
2021/11/15 00:30:01;;;;;;;20.10;11.90;;;;;;;;;;5013090;28;20114;-81
2021/11/15 00:32:27;;;;;;;19.15;11.60;;;;;;;;;;5023998;28;20543;-83
2021/11/15 00:34:53;;;;;;;19.75;11.73;;;;;;;;;;5011745;28;20437;-79
2021/11/15 00:37:18;;;;;;;20.98;12.68;;;;;;;;;;5011085;28;20025;-81
2021/11/15 00:39:44;;;;;;;20.60;12.02;;;;;;;;;;5009207;28;20120;-80
2021/11/15 00:42:09;;;;;;;19.70;12.70;;;;;;;;;;5009999;28;20561;-81
2021/11/15 00:44:35;;;;;;;19.40;11.57;;;;;;;;;;5026855;28;20442;-81
2021/11/15 00:47:00;;;;;;;18.77;11.52;;;;;;;;;;5008878;28;20037;-81
2021/11/15 00:49:26;;;;;;;18.70;11.63;;;;;;;;;;5008065;28;20389;-83
2021/11/15 00:51:51;;;;;;;18.38;11.18;;;;;;;;;;5022375;28;20044;-80
2021/11/15 00:54:16;;;;;;;18.52;11.52;;;;;;;;;;5009562;28;20044;-83
2021/11/15 00:56:42;;;;;;;18.20;11.38;;;;;;;;;;5010852;28;20382;-81
2021/11/15 00:59:07;;;;;;;18.30;12.48;;;;;;;;;;5010899;28;20503;-80
2021/11/15 01:01:33;;;;;;;22.25;12.85;;;;;;;;;;5002399;28;20155;-81
2021/11/15 01:03:58;;;;;;;20.58;13.10;;;;;;;;;;5004537;28;20489;-80
2021/11/15 01:06:23;;;;;;;19.77;12.63;;;;;;;;;;5024284;28;20108;-79
2021/11/15 01:08:52;;;;;;;20.85;12.93;;;;;;;;;;5010494;28;20078;-81
2021/11/15 01:11:17;;;;;;;19.58;12.20;;;;;;;;;;5003136;28;20132;-80
2021/11/15 01:13:42;;;;;;;20.45;12.77;;;;;;;;;;5026516;28;20477;-81
2021/11/15 01:16:08;;;;;;;23.13;14.45;;;;;;;;;;5023933;28;20044;-83
2021/11/15 01:18:34;;;;;;;24.38;14.13;;;;;;;;;;5007619;28;20032;-80
2021/11/15 01:21:00;;;;;;;24.48;14.07;;;;;;;;;;5010154;28;20032;-81
2021/11/15 01:23:26;;;;;;;23.80;14.38;;;;;;;;;;5007520;28;20396;-83
2021/11/15 01:25:51;;;;;;;22.85;13.82;;;;;;;;;;5003350;28;20026;-81
2021/11/15 01:28:19;;;;;;;23.25;14.80;;;;;;;;;;5027767;28;20032;-83
2021/11/15 01:30:44;;;;;;;21.52;13.65;;;;;;;;;;5008867;28;20029;-80
2021/11/15 01:33:10;;;;;;;25.85;14.80;;;;;;;;;;5006602;28;20029;-79
2021/11/15 01:35:35;;;;;;;24.65;14.88;;;;;;;;;;5009483;28;20092;-81
2021/11/15 01:38:02;;;;;;;22.73;14.38;;;;;;;;;;5023528;28;20039;-79
2021/11/15 01:40:29;;;;;;;22.60;14.15;;;;;;;;;;5002448;28;20032;-81
2021/11/15 01:42:56;;;;;;;22.35;13.73;;;;;;;;;;5019335;28;20030;-80
2021/11/15 01:45:24;;;;;;;23.52;14.75;;;;;;;;;;5024414;28;20048;-80
2021/11/15 01:47:55;;;;;;;23.15;13.73;;;;;;;;;;5008410;28;20464;-81
2021/11/15 01:50:25;;;;;;;24.05;14.73;;;;;;;;;;5009716;28;20026;-84
2021/11/15 01:52:51;;;;;;;24.05;14.32;;;;;;;;;;5006397;28;20499;-79
2021/11/15 01:55:20;;;;;;;24.77;14.63;;;;;;;;;;5007895;28;20044;-83
2021/11/15 01:57:47;;;;;;;22.83;13.95;;;;;;;;;;5002520;28;20037;-83
2021/11/15 02:00:35;;;;;;;24.67;14.63;;;;;;;;;;5007892;28;20033;-79
2021/11/15 02:03:01;;;;;;;23.42;14.15;;;;;;;;;;5010326;28;20045;-83
2021/11/15 02:05:26;;;;;;;23.77;14.27;;;;;;;;;;5026473;28;20032;-81
2021/11/15 02:07:52;;;;;;;24.27;14.68;;;;;;;;;;5003521;28;20513;-81
2021/11/15 02:10:18;;;;;;;23.20;14.13;;;;;;;;;;5009292;28;20033;-81
2021/11/15 02:12:43;;;;;;;25.13;14.30;;;;;;;;;;5008765;28;20546;-81
2021/11/15 02:15:13;;;;;;;25.63;15.48;;;;;;;;;;5006167;28;20036;-81
2021/11/15 02:17:41;;;;;;;23.17;14.27;;;;;;;;;;5007800;28;20037;-81
2021/11/15 02:20:15;;;;;;;25.50;14.73;;;;;;;;;;5008809;28;20429;-84
2021/11/15 02:22:41;;;;;;;27.38;15.27;;;;;;;;;;5011335;28;20031;-84
2021/11/15 02:25:06;;;;;;;24.20;13.98;;;;;;;;;;5026476;28;20025;-81
2021/11/15 02:27:34;;;;;;;25.10;15.25;;;;;;;;;;5010266;28;20067;-81
2021/11/15 02:30:00;;;;;;;25.05;15.27;;;;;;;;;;5006309;28;20029;-81
2021/11/15 02:32:26;;;;;;;25.70;14.30;;;;;;;;;;5012052;28;20029;-79
2021/11/15 02:34:52;;;;;;;24.52;14.63;;;;;;;;;;5014083;28;20025;-81
2021/11/15 02:37:18;;;;;;;23.58;14.30;;;;;;;;;;5029769;28;20060;-82
2021/11/15 02:39:44;;;;;;;23.58;15.15;;;;;;;;;;5010733;28;20036;-81
2021/11/15 02:42:12;;;;;;;26.23;15.27;;;;;;;;;;5011877;28;20021;-79
2021/11/15 02:44:39;;;;;;;24.27;14.43;;;;;;;;;;5013240;28;20021;-79
2021/11/15 02:47:04;;;;;;;23.05;14.95;;;;;;;;;;5009148;28;20032;-83
2021/11/15 02:49:30;;;;;;;25.95;14.50;;;;;;;;;;5025002;28;20025;-80
2021/11/15 02:51:57;;;;;;;23.65;14.80;;;;;;;;;;5013015;28;20025;-83
2021/11/15 02:54:24;;;;;;;24.27;13.77;;;;;;;;;;5031992;28;20400;-79
2021/11/15 02:56:50;;;;;;;24.15;13.65;;;;;;;;;;5025063;28;20022;-81
2021/11/15 02:59:16;;;;;;;24.50;14.88;;;;;;;;;;5012738;28;20112;-80
2021/11/15 03:01:46;;;;;;;28.92;16.13;;;;;;;;;;5007953;28;20152;-82
2021/11/15 03:04:11;;;;;;;24.98;13.95;;;;;;;;;;5030338;28;20041;-81
2021/11/15 03:06:37;;;;;;;24.10;15.05;;;;;;;;;;5012820;28;20108;-83
2021/11/15 03:09:02;;;;;;;24.58;14.55;;;;;;;;;;5011856;28;20129;-81
2021/11/15 03:11:27;;;;;;;23.45;14.77;;;;;;;;;;5004693;28;20026;-80
2021/11/15 03:13:53;;;;;;;25.23;15.43;;;;;;;;;;5013877;28;20029;-79
2021/11/15 03:16:18;;;;;;;23.42;14.13;;;;;;;;;;5007818;28;20076;-80
2021/11/15 03:18:44;;;;;;;23.05;14.35;;;;;;;;;;5012170;28;20063;-83
2021/11/15 03:21:13;;;;;;;24.50;14.52;;;;;;;;;;5028376;28;20079;-80
2021/11/15 03:23:42;;;;;;;26.15;15.02;;;;;;;;;;5010834;28;20495;-81
2021/11/15 03:26:08;;;;;;;25.15;14.02;;;;;;;;;;5009828;28;20033;-83
2021/11/15 03:28:37;;;;;;;25.77;14.75;;;;;;;;;;5009976;28;20109;-79
2021/11/15 03:31:10;;;;;;;25.02;14.40;;;;;;;;;;5008765;28;20034;-81
2021/11/15 03:33:37;;;;;;;25.75;14.77;;;;;;;;;;5010414;28;20032;-81
2021/11/15 03:36:03;;;;;;;24.08;14.18;;;;;;;;;;5010256;28;20018;-81
2021/11/15 03:38:29;;;;;;;23.15;14.48;;;;;;;;;;5022454;28;20045;-83
2021/11/15 03:40:56;;;;;;;23.30;14.50;;;;;;;;;;5021206;28;20029;-79
2021/11/15 03:43:22;;;;;;;24.67;15.45;;;;;;;;;;5012342;28;20512;-81
2021/11/15 03:45:47;;;;;;;27.13;16.30;;;;;;;;;;5028314;28;20025;-81
2021/11/15 03:48:13;;;;;;;25.17;14.80;;;;;;;;;;5026684;28;20025;-81
2021/11/15 03:50:39;;;;;;;25.25;15.05;;;;;;;;;;5019525;28;20053;-81
2021/11/15 03:53:07;;;;;;;23.73;14.25;;;;;;;;;;5011827;28;20036;-81
2021/11/15 03:55:32;;;;;;;23.75;13.98;;;;;;;;;;5022677;28;20033;-81
2021/11/15 03:57:58;;;;;;;23.30;14.35;;;;;;;;;;5009328;28;20032;-82
2021/11/15 04:00:31;;;;;;;25.80;14.95;;;;;;;;;;5026801;28;20041;-79
2021/11/15 04:03:02;;;;;;;26.15;15.98;;;;;;;;;;5026908;28;21011;-79
2021/11/15 04:05:32;;;;;;;27.10;16.27;;;;;;;;;;5028185;28;20033;-80
2021/11/15 04:08:00;;;;;;;27.52;16.10;;;;;;;;;;5007099;28;20041;-80
2021/11/15 04:10:46;;;;;;;25.42;15.90;;;;;;;;;;5007065;28;20021;-80
2021/11/15 04:13:21;;;;;;;24.70;15.52;;;;;;;;;;5010258;28;20042;-81
2021/11/15 04:15:50;;;;;;;24.73;15.30;;;;;;;;;;5027152;28;20029;-81
2021/11/15 04:18:17;;;;;;;24.55;15.63;;;;;;;;;;5009141;28;20041;-81
2021/11/15 04:20:43;;;;;;;26.00;16.02;;;;;;;;;;5011624;28;20040;-83
2021/11/15 04:23:09;;;;;;;24.30;14.95;;;;;;;;;;5012080;28;20037;-86
2021/11/15 04:25:35;;;;;;;25.70;15.05;;;;;;;;;;5010864;28;20021;-82
2021/11/15 04:28:01;;;;;;;27.15;15.95;;;;;;;;;;5008050;28;20045;-83
2021/11/15 04:30:31;;;;;;;27.02;15.57;;;;;;;;;;5010283;28;20444;-83
2021/11/15 04:32:57;;;;;;;26.92;15.63;;;;;;;;;;5011340;28;20125;-85
2021/11/15 04:35:23;;;;;;;27.65;15.70;;;;;;;;;;5012376;28;20042;-82
2021/11/15 04:37:48;;;;;;;25.35;14.88;;;;;;;;;;5011223;28;20033;-83
2021/11/15 04:40:14;;;;;;;27.40;15.80;;;;;;;;;;5026287;28;20473;-83
2021/11/15 04:42:39;;;;;;;29.05;16.08;;;;;;;;;;5007204;28;20095;-83
2021/11/15 04:45:06;;;;;;;30.50;17.42;;;;;;;;;;5012112;28;20068;-86
2021/11/15 04:47:31;;;;;;;31.85;18.15;;;;;;;;;;5023804;28;20039;-85
2021/11/15 04:49:57;;;;;;;29.80;17.30;;;;;;;;;;5010603;28;20023;-86
2021/11/15 04:52:23;;;;;;;29.95;17.05;;;;;;;;;;5020111;28;20397;-82
2021/11/15 04:54:48;;;;;;;27.95;16.20;;;;;;;;;;5007658;28;20040;-83
2021/11/15 04:57:15;;;;;;;27.90;16.65;;;;;;;;;;5006995;28;20450;-83
2021/11/15 04:59:41;;;;;;;27.60;15.63;;;;;;;;;;5009012;28;20116;-85
2021/11/15 05:02:06;;;;;;;29.85;16.85;;;;;;;;;;5010435;28;20112;-81
2021/11/15 05:04:31;;;;;;;30.92;17.13;;;;;;;;;;5027111;28;20025;-82
2021/11/15 05:06:57;;;;;;;25.95;15.57;;;;;;;;;;5008683;28;20128;-83
2021/11/15 05:09:22;;;;;;;30.17;16.83;;;;;;;;;;5025194;28;20788;-81
2021/11/15 05:11:48;;;;;;;30.17;18.13;;;;;;;;;;5008839;28;20385;-81
2021/11/15 05:14:13;;;;;;;29.88;17.05;;;;;;;;;;5012207;28;20122;-81
2021/11/15 05:16:39;;;;;;;30.83;17.88;;;;;;;;;;5007694;28;20496;-83
2021/11/15 05:19:05;;;;;;;32.78;17.95;;;;;;;;;;5026460;28;20040;-81
2021/11/15 05:21:30;;;;;;;30.23;17.95;;;;;;;;;;5008860;28;20462;-81
2021/11/15 05:23:56;;;;;;;30.85;19.10;;;;;;;;;;5004246;28;21385;-79
2021/11/15 05:26:22;;;;;;;31.10;17.75;;;;;;;;;;5010361;28;20032;-79
2021/11/15 05:28:47;;;;;;;35.53;19.17;;;;;;;;;;5007102;28;20077;-82
2021/11/15 05:31:13;;;;;;;33.65;19.00;;;;;;;;;;5006825;28;20038;-81
2021/11/15 05:33:39;;;;;;;32.00;18.52;;;;;;;;;;5003921;28;20044;-81
2021/11/15 05:36:05;;;;;;;32.60;18.92;;;;;;;;;;5026639;28;20049;-81
2021/11/15 05:38:31;;;;;;;33.33;17.80;;;;;;;;;;5027573;28;20544;-83
2021/11/15 05:40:56;;;;;;;31.85;17.30;;;;;;;;;;5006269;28;20022;-83
2021/11/15 05:43:22;;;;;;;29.77;17.83;;;;;;;;;;5009583;28;20109;-83
2021/11/15 05:45:47;;;;;;;28.83;16.73;;;;;;;;;;5025559;28;20068;-83
2021/11/15 05:48:13;;;;;;;29.85;17.15;;;;;;;;;;5023095;28;20064;-79
2021/11/15 05:50:39;;;;;;;29.13;17.05;;;;;;;;;;5011206;28;20033;-79
2021/11/15 05:53:04;;;;;;;28.98;16.73;;;;;;;;;;5026052;28;20025;-83
2021/11/15 05:55:30;;;;;;;32.83;17.92;;;;;;;;;;5009830;28;20017;-83
2021/11/15 05:57:57;;;;;;;29.75;18.27;;;;;;;;;;5008392;28;20076;-81
2021/11/15 06:00:26;;;;;;;29.85;18.08;;;;;;;;;;5007407;28;20030;-79
2021/11/15 06:02:52;;;;;;;30.02;17.48;;;;;;;;;;5007598;28;20034;-81
2021/11/15 06:05:18;;;;;;;29.85;17.52;;;;;;;;;;5018600;28;20036;-82
2021/11/15 06:07:43;;;;;;;30.13;17.25;;;;;;;;;;5010350;28;20489;-81
2021/11/15 06:10:10;;;;;;;30.92;18.15;;;;;;;;;;5006979;28;20030;-83
2021/11/15 06:12:38;;;;;;;31.77;18.15;;;;;;;;;;5011098;28;20033;-80
2021/11/15 06:15:04;;;;;;;29.08;17.73;;;;;;;;;;5010601;28;20049;-81
2021/11/15 06:17:30;;;;;;;30.02;17.90;;;;;;;;;;5006381;28;20026;-79
2021/11/15 06:19:55;;;;;;;33.13;18.08;;;;;;;;;;5005600;28;20031;-81
2021/11/15 06:22:21;;;;;;;32.08;18.77;;;;;;;;;;5008444;28;20100;-79
2021/11/15 06:24:49;;;;;;;31.67;18.95;;;;;;;;;;5006187;28;20101;-81
2021/11/15 06:27:38;;;;;;;32.25;19.05;;;;;;;;;;5008917;28;20021;-81
2021/11/15 06:30:06;;;;;;;31.83;17.15;;;;;;;;;;5004656;28;20038;-83
2021/11/15 06:32:32;;;;;;;30.77;18.10;;;;;;;;;;5011192;28;20050;-85
2021/11/15 06:34:58;;;;;;;30.63;18.02;;;;;;;;;;5009710;28;20445;-84
2021/11/15 06:37:24;;;;;;;30.55;17.85;;;;;;;;;;5010439;28;20500;-79
2021/11/15 06:39:49;;;;;;;33.03;18.38;;;;;;;;;;5010027;28;20121;-79
2021/11/15 06:42:15;;;;;;;32.83;18.25;;;;;;;;;;5008237;28;20541;-79
2021/11/15 06:44:40;;;;;;;31.25;17.80;;;;;;;;;;5006666;28;20116;-82
2021/11/15 06:47:07;;;;;;;31.13;17.60;;;;;;;;;;5006430;28;20030;-83
2021/11/15 06:49:33;;;;;;;30.80;17.77;;;;;;;;;;5005049;28;20037;-84
2021/11/15 06:51:58;;;;;;;32.30;18.67;;;;;;;;;;5004804;28;20026;-81
2021/11/15 06:54:26;;;;;;;31.20;18.33;;;;;;;;;;5005003;28;20037;-81
2021/11/15 06:56:51;;;;;;;28.25;17.38;;;;;;;;;;5007018;28;20076;-79
2021/11/15 06:59:18;;;;;;;30.17;17.30;;;;;;;;;;5008316;28;20100;-84
2021/11/15 07:01:43;;;;;;;30.17;17.20;;;;;;;;;;5006220;28;20029;-82
2021/11/15 07:04:13;;;;;;;30.00;17.20;;;;;;;;;;5006011;28;20037;-81
2021/11/15 07:06:40;;;;;;;31.73;17.77;;;;;;;;;;5009305;28;20030;-79
2021/11/15 07:09:09;;;;;;;27.58;16.73;;;;;;;;;;5007214;28;20054;-81
2021/11/15 07:11:36;;;;;;;29.00;16.75;;;;;;;;;;5005317;28;20496;-80
2021/11/15 07:14:03;;;;;;;33.13;18.02;;;;;;;;;;5007026;28;20041;-80
2021/11/15 07:16:28;;;;;;;28.98;17.42;;;;;;;;;;5003220;28;20137;-81
2021/11/15 07:18:54;;;;;;;28.60;17.00;;;;;;;;;;5005755;28;20172;-79
2021/11/15 07:21:20;;;;;;;29.70;17.88;;;;;;;;;;5010104;28;20029;-79
2021/11/15 07:23:46;;;;;;;31.25;19.02;;;;;;;;;;5008033;28;20033;-81
2021/11/15 07:26:12;;;;;;;30.13;17.25;;;;;;;;;;5001720;28;20637;-83
2021/11/15 07:28:37;;;;;;;29.10;17.52;;;;;;;;;;5004356;28;20172;-80
2021/11/15 07:31:03;;;;;;;29.08;17.05;;;;;;;;;;5009290;28;20423;-80
2021/11/15 07:33:28;;;;;;;29.55;17.92;;;;;;;;;;5001671;28;20030;-83
2021/11/15 07:35:54;;;;;;;28.63;16.88;;;;;;;;;;5005122;28;20037;-81
2021/11/15 07:38:19;;;;;;;32.20;18.05;;;;;;;;;;5004886;28;20034;-79
2021/11/15 07:40:45;;;;;;;29.70;17.58;;;;;;;;;;5002896;28;20096;-80
2021/11/15 07:43:11;;;;;;;30.63;16.90;;;;;;;;;;5008136;28;20048;-81
2021/11/15 07:45:37;;;;;;;28.63;18.30;;;;;;;;;;5005817;28;20064;-81
2021/11/15 07:48:02;;;;;;;28.35;16.77;;;;;;;;;;5009584;28;20405;-81
2021/11/15 07:50:28;;;;;;;26.77;15.63;;;;;;;;;;5008940;28;20435;-81
2021/11/15 07:52:54;;;;;;;29.17;17.30;;;;;;;;;;5006477;28;20564;-83
2021/11/15 07:55:19;;;;;;;30.05;17.45;;;;;;;;;;5004604;28;20041;-81
2021/11/15 07:57:45;;;;;;;28.05;15.98;;;;;;;;;;5001257;28;20471;-81
2021/11/15 08:00:21;;;;;;;29.48;17.40;;;;;;;;;;5003536;28;20161;-79
2021/11/15 08:02:47;;;;;;;28.73;16.70;;;;;;;;;;5009526;28;20026;-83
2021/11/15 08:05:16;;;;;;;27.73;16.83;;;;;;;;;;5001481;28;20034;-80
2021/11/15 08:07:41;;;;;;;27.83;16.50;;;;;;;;;;5011583;28;20049;-83
2021/11/15 08:10:10;;;;;;;28.38;16.80;;;;;;;;;;5013007;28;20477;-80
2021/11/15 08:12:41;;;;;;;28.58;17.00;;;;;;;;;;5009844;28;20120;-83
2021/11/15 08:15:09;;;;;;;30.23;16.80;;;;;;;;;;5011968;28;20499;-82
2021/11/15 08:17:37;;;;;;;25.33;15.63;;;;;;;;;;5009559;28;20025;-81
2021/11/15 08:20:09;;;;;;;29.95;16.85;;;;;;;;;;5006903;28;20056;-80
2021/11/15 08:22:35;;;;;;;30.27;17.55;;;;;;;;;;5007771;28;20041;-83
2021/11/15 08:25:00;;;;;;;27.25;16.35;;;;;;;;;;5014262;28;20493;-81
2021/11/15 08:27:26;;;;;;;29.02;17.80;;;;;;;;;;5007960;28;20032;-79
2021/11/15 08:29:51;;;;;;;26.35;16.10;;;;;;;;;;5007646;28;20032;-84
2021/11/15 08:32:17;;;;;;;28.98;16.70;;;;;;;;;;5013510;28;20025;-83
2021/11/15 08:34:43;;;;;;;27.40;16.60;;;;;;;;;;5012121;28;20021;-83
2021/11/15 08:37:09;;;;;;;27.88;15.40;;;;;;;;;;5010161;28;20037;-85
2021/11/15 08:39:36;;;;;;;24.65;14.73;;;;;;;;;;5006846;28;20127;-83
2021/11/15 08:42:05;;;;;;;26.45;15.27;;;;;;;;;;5003367;28;20099;-83
2021/11/15 08:44:32;;;;;;;24.42;13.77;;;;;;;;;;5026022;28;20033;-82
2021/11/15 08:47:00;;;;;;;25.23;14.70;;;;;;;;;;5023358;28;20036;-85
2021/11/15 08:49:44;;;;;;;;;;;;;;;;;;;;;
2021/11/15 08:52:31;;;;;;;25.23;13.65;;;;;;;;;;5026078;28;20040;-85
2021/11/15 08:55:03;;;;;;;25.15;13.23;;;;;;;;;;5010145;28;20109;-83
2021/11/15 08:57:34;;;;;;;25.35;13.52;;;;;;;;;;5023624;28;20026;-82
2021/11/15 09:00:03;;;;;;;25.45;12.80;;;;;;;;;;5023260;28;20033;-84
2021/11/15 09:02:32;;;;;;;24.15;13.65;;;;;;;;;;5004459;28;20029;-83
2021/11/15 09:05:07;;;;;;;25.13;14.40;;;;;;;;;;5007836;28;20140;-83
2021/11/15 09:11:05;;;;;;;23.70;12.90;;;;;;;;;;5001574;28;20037;-83
2021/11/15 09:13:35;;;;;;;24.23;12.68;;;;;;;;;;4979867;28;20042;-85
2021/11/15 09:19:06;;;;;;;25.35;13.65;;;;;;;;;;4986775;28;20693;-83
2021/11/15 09:21:43;;;;;;;24.40;13.15;;;;;;;;;;4968288;28;20046;-81
2021/11/15 09:24:08;;;;;;;23.98;12.48;;;;;;;;;;5001485;28;20087;-81
2021/11/15 09:26:35;;;;;;;23.02;12.25;;;;;;;;;;5003616;28;20037;-81
2021/11/15 09:29:23;;;;;;;;;;;;;;;;;;;;;
2021/11/15 09:32:08;;;;;;;20.45;11.30;;;;;;;;;;5003531;28;20040;-80
2021/11/15 09:37:39;;;;;;;21.17;10.73;;;;;;;;;;5001386;28;20046;-82
2021/11/15 09:40:09;;;;;;;20.08;10.93;;;;;;;;;;5007940;28;20037;-80
2021/11/15 09:42:41;;;;;;;19.25;10.43;;;;;;;;;;5008170;28;20040;-82
2021/11/15 09:45:10;;;;;;;18.30;9.95;;;;;;;;;;5007719;28;20110;-82
2021/11/15 09:47:51;;;;;;;;;;;;;;;;;;;;;
2021/11/15 09:51:10;;;;;;;22.25;9.93;;;;;;;;;;5003857;28;20030;-82
2021/11/15 09:53:42;;;;;;;19.02;9.45;;;;;;;;;;5006106;28;20029;-83
2021/11/15 09:56:26;;;;;;;;;;;;;;;;;;;;;
2021/11/15 09:59:14;;;;;;;16.50;8.90;;;;;;;;;;5004815;28;20030;-82
2021/11/15 10:05:11;;;;;;;12.63;6.70;;;;;;;;;;4936018;28;20041;-82
2021/11/15 10:11:17;;;;;;;14.43;6.75;;;;;;;;;;4929545;29;20032;-82
2021/11/15 10:14:14;;;;;;;13.13;6.85;;;;;;;;;;4984626;28;20509;-82
2021/11/15 10:17:14;;;;;;;12.77;6.53;;;;;;;;;;4984410;28;20030;-83
2021/11/15 10:20:14;;;;;;;12.32;6.72;;;;;;;;;;4989452;28;20347;-84
2021/11/15 10:22:46;;;;;;;11.98;6.78;;;;;;;;;;4985424;28;20124;-82
2021/11/15 10:26:17;;;;;;;11.68;6.28;;;;;;;;;;4983468;28;20038;-85
2021/11/15 10:28:51;;;;;;;12.60;6.50;;;;;;;;;;4986761;28;20047;-82
2021/11/15 10:31:50;;;;;;;11.35;6.25;;;;;;;;;;4983461;28;20030;-84
2021/11/15 10:37:27;;;;;;;10.48;6.10;;;;;;;;;;4983083;28;20539;-82
2021/11/15 10:39:56;;;;;;;12.10;6.63;;;;;;;;;;4990097;28;20026;-84
2021/11/15 10:42:50;;;;;;;14.73;6.85;;;;;;;;;;4987871;28;20118;-85
2021/11/15 10:45:21;;;;;;;13.50;6.90;;;;;;;;;;4991608;28;20513;-85
2021/11/15 10:47:58;;;;;;;13.07;6.95;;;;;;;;;;4990180;28;20023;-82
2021/11/15 10:50:52;;;;;;;14.93;7.47;;;;;;;;;;4990710;28;20042;-84
2021/11/15 10:53:28;;;;;;;15.60;7.55;;;;;;;;;;4984666;28;20030;-84
2021/11/15 10:56:06;;;;;;;15.88;7.55;;;;;;;;;;4991272;28;20019;-83
2021/11/15 10:58:40;;;;;;;14.80;7.70;;;;;;;;;;4984456;28;20026;-83
2021/11/15 11:01:06;;;;;;;14.90;7.63;;;;;;;;;;4989739;28;20038;-83
2021/11/15 11:03:46;;;;;;;15.63;7.85;;;;;;;;;;4995525;28;20042;-82
2021/11/15 11:06:15;;;;;;;17.08;8.57;;;;;;;;;;4991647;28;20046;-82
2021/11/15 11:08:46;;;;;;;19.30;9.38;;;;;;;;;;4998937;28;20049;-83
2021/11/15 11:11:17;;;;;;;18.75;8.85;;;;;;;;;;5011397;28;20497;-82
2021/11/15 11:13:50;;;;;;;18.65;9.63;;;;;;;;;;5008277;28;20032;-84
2021/11/15 11:16:17;;;;;;;19.73;9.45;;;;;;;;;;5004114;28;20072;-84
2021/11/15 11:18:49;;;;;;;18.33;9.55;;;;;;;;;;5004517;28;20120;-79
2021/11/15 11:24:31;;;;;;;23.17;9.55;;;;;;;;;;4973505;28;20124;-80
2021/11/15 11:27:00;;;;;;;17.40;9.23;;;;;;;;;;5009190;28;20034;-82
2021/11/15 11:29:29;;;;;;;17.48;8.90;;;;;;;;;;5002492;28;20026;-80
2021/11/15 11:32:00;;;;;;;18.63;9.13;;;;;;;;;;5005859;28;20076;-81
2021/11/15 11:34:25;;;;;;;18.05;8.93;;;;;;;;;;5007966;28;20116;-81
2021/11/15 11:36:51;;;;;;;21.80;9.90;;;;;;;;;;5003947;28;20113;-80
2021/11/15 11:39:18;;;;;;;19.15;9.00;;;;;;;;;;5005542;28;20036;-82
2021/11/15 11:41:49;;;;;;;19.40;9.02;;;;;;;;;;5002450;28;20034;-82
2021/11/15 11:44:14;;;;;;;16.63;8.57;;;;;;;;;;5010904;28;20029;-83
2021/11/15 11:46:41;;;;;;;21.27;9.68;;;;;;;;;;5007495;28;20112;-84
2021/11/15 11:49:14;;;;;;;19.23;8.85;;;;;;;;;;5008188;28;20124;-84
2021/11/15 11:51:50;;;;;;;21.30;9.33;;;;;;;;;;5009226;28;20446;-84
2021/11/15 11:54:37;;;;;;;17.17;8.13;;;;;;;;;;5010658;28;20030;-84
2021/11/15 11:57:08;;;;;;;16.88;8.80;;;;;;;;;;5008750;28;20025;-85
2021/11/15 11:59:37;;;;;;;20.10;9.23;;;;;;;;;;5011098;28;20417;-82
2021/11/15 12:02:08;;;;;;;19.08;8.75;;;;;;;;;;5006183;28;20044;-83
2021/11/15 12:04:46;;;;;;;20.58;8.73;;;;;;;;;;5007744;28;20498;-80
2021/11/15 12:07:32;;;;;;;20.90;8.63;;;;;;;;;;5008025;28;20065;-83
2021/11/15 12:10:09;;;;;;;19.75;8.50;;;;;;;;;;4987884;28;20034;-79
2021/11/15 12:12:54;;;;;;;19.08;8.80;;;;;;;;;;4988401;28;20034;-82
2021/11/15 12:15:30;;;;;;;19.95;8.55;;;;;;;;;;4985454;28;20161;-83
2021/11/15 12:18:06;;;;;;;21.48;9.25;;;;;;;;;;4990946;28;20077;-84
2021/11/15 12:20:31;;;;;;;22.35;10.40;;;;;;;;;;4988714;28;20084;-85
2021/11/15 12:22:58;;;;;;;19.65;8.93;;;;;;;;;;4985990;28;20515;-83
2021/11/15 12:25:26;;;;;;;19.48;9.73;;;;;;;;;;4989230;28;20034;-82
2021/11/15 12:27:57;;;;;;;17.23;8.63;;;;;;;;;;4989730;28;20014;-84
2021/11/15 12:30:28;;;;;;;18.17;8.90;;;;;;;;;;4988381;28;20069;-83
2021/11/15 12:33:19;;;;;;;17.58;8.90;;;;;;;;;;4988230;28;20030;-81
2021/11/15 12:35:56;;;;;;;17.63;8.40;;;;;;;;;;4987164;28;20885;-82
2021/11/15 12:38:50;;;;;;;18.30;8.27;;;;;;;;;;4987744;28;20228;-85
2021/11/15 12:41:16;;;;;;;17.17;8.05;;;;;;;;;;4985625;28;20035;-82
2021/11/15 12:43:43;;;;;;;16.25;8.25;;;;;;;;;;4988253;28;20061;-85
2021/11/15 12:46:16;;;;;;;19.48;8.60;;;;;;;;;;4983859;28;20037;-82
2021/11/15 12:48:43;;;;;;;17.00;8.68;;;;;;;;;;4985713;28;20530;-85
2021/11/15 12:51:17;;;;;;;13.90;7.20;;;;;;;;;;4985424;28;20506;-83
2021/11/15 12:53:49;;;;;;;15.02;7.57;;;;;;;;;;4983441;28;20470;-85
2021/11/15 12:56:17;;;;;;;17.20;8.95;;;;;;;;;;4986346;28;20045;-86
2021/11/15 12:58:52;;;;;;;17.00;8.02;;;;;;;;;;4986501;28;20377;-82
2021/11/15 13:01:20;;;;;;;19.15;8.40;;;;;;;;;;4986346;28;20482;-82
2021/11/15 13:03:52;;;;;;;14.82;8.25;;;;;;;;;;4998092;28;20026;-81
2021/11/15 13:06:18;;;;;;;15.95;7.63;;;;;;;;;;4986934;28;20054;-82
2021/11/15 13:08:45;;;;;;;17.85;8.65;;;;;;;;;;4999786;28;20128;-85
2021/11/15 13:11:12;;;;;;;14.60;7.22;;;;;;;;;;5006051;28;20030;-81
2021/11/15 13:13:38;;;;;;;15.57;7.78;;;;;;;;;;5001549;28;20034;-82
2021/11/15 13:16:03;;;;;;;13.93;6.63;;;;;;;;;;5006808;28;20036;-83
2021/11/15 13:18:28;;;;;;;15.75;6.95;;;;;;;;;;5006796;28;20038;-82
2021/11/15 13:20:55;;;;;;;15.35;6.97;;;;;;;;;;5006277;28;20018;-85
2021/11/15 13:23:21;;;;;;;16.67;7.82;;;;;;;;;;5005192;28;20084;-84
2021/11/15 13:25:46;;;;;;;15.75;7.15;;;;;;;;;;5001808;28;20022;-85
2021/11/15 13:28:15;;;;;;;17.70;7.43;;;;;;;;;;5009591;28;20484;-82
2021/11/15 13:30:40;;;;;;;16.63;7.57;;;;;;;;;;5007474;28;20038;-83
2021/11/15 13:33:06;;;;;;;13.95;7.57;;;;;;;;;;5006229;28;20034;-81
2021/11/15 13:35:31;;;;;;;16.70;7.72;;;;;;;;;;5006006;28;20030;-83
2021/11/15 13:38:01;;;;;;;16.45;7.78;;;;;;;;;;5005572;28;20018;-82
2021/11/15 13:40:33;;;;;;;15.27;7.57;;;;;;;;;;5007394;28;20111;-83
2021/11/15 13:42:59;;;;;;;16.60;7.88;;;;;;;;;;5004821;28;20433;-82
2021/11/15 13:45:25;;;;;;;15.02;8.05;;;;;;;;;;5002621;28;20025;-82
2021/11/15 13:47:52;;;;;;;17.75;7.55;;;;;;;;;;5002982;28;20088;-81
2021/11/15 13:50:18;;;;;;;17.23;8.52;;;;;;;;;;5008935;28;20032;-82
2021/11/15 13:52:43;;;;;;;14.65;7.88;;;;;;;;;;5006822;28;20030;-85
2021/11/15 13:55:09;;;;;;;17.75;8.38;;;;;;;;;;5007346;28;20422;-83
2021/11/15 13:57:34;;;;;;;17.85;8.15;;;;;;;;;;5006297;28;20058;-83
2021/11/15 14:00:01;;;;;;;16.17;7.97;;;;;;;;;;5005404;28;20072;-83
2021/11/15 14:02:26;;;;;;;19.85;8.10;;;;;;;;;;5003881;28;20496;-85
2021/11/15 14:04:52;;;;;;;15.82;7.65;;;;;;;;;;5006469;28;20038;-84
2021/11/15 14:07:19;;;;;;;16.20;7.93;;;;;;;;;;5002648;28;20022;-83
2021/11/15 14:09:45;;;;;;;18.23;8.43;;;;;;;;;;5007990;28;20116;-82
2021/11/15 14:12:11;;;;;;;16.80;8.40;;;;;;;;;;5006772;28;20460;-85
2021/11/15 14:14:36;;;;;;;19.05;9.60;;;;;;;;;;5012545;28;20075;-84
2021/11/15 14:17:02;;;;;;;18.40;8.80;;;;;;;;;;5012018;28;20061;-83
2021/11/15 14:19:28;;;;;;;20.83;9.85;;;;;;;;;;5011583;28;20102;-83
2021/11/15 14:21:54;;;;;;;17.60;9.63;;;;;;;;;;5027133;28;20550;-81
2021/11/15 14:24:19;;;;;;;21.33;9.70;;;;;;;;;;5008564;28;20034;-82
2021/11/15 14:26:45;;;;;;;18.70;9.00;;;;;;;;;;5029857;28;20495;-85
2021/11/15 14:29:10;;;;;;;18.08;9.45;;;;;;;;;;5029007;28;20025;-82
2021/11/15 14:31:35;;;;;;;18.80;9.40;;;;;;;;;;5025377;28;20033;-82
2021/11/15 14:34:01;;;;;;;18.98;9.73;;;;;;;;;;5012539;28;20037;-82
2021/11/15 14:36:26;;;;;;;17.75;8.88;;;;;;;;;;5028125;28;20487;-82
2021/11/15 14:38:52;;;;;;;16.83;8.90;;;;;;;;;;5015143;28;20025;-82
2021/11/15 14:41:26;;;;;;;18.52;8.82;;;;;;;;;;5029990;28;20029;-86
2021/11/15 14:43:52;;;;;;;19.00;8.88;;;;;;;;;;5010525;28;20126;-86
2021/11/15 14:46:17;;;;;;;20.02;9.38;;;;;;;;;;5007752;28;20125;-82
2021/11/15 14:48:42;;;;;;;20.40;10.25;;;;;;;;;;5014833;28;20485;-82
2021/11/15 14:51:08;;;;;;;18.65;9.45;;;;;;;;;;5007270;28;20515;-84
2021/11/15 14:53:34;;;;;;;19.80;10.25;;;;;;;;;;5011185;28;20025;-83
2021/11/15 14:55:59;;;;;;;18.65;9.18;;;;;;;;;;5030103;28;20025;-86
2021/11/15 14:58:26;;;;;;;17.77;9.82;;;;;;;;;;5030098;28;20635;-82